createdAt,value
2022-10-28T00:03:53.959Z,19.19
2022-10-28T00:13:53.977Z,19.20
2022-10-28T00:23:53.987Z,19.29
2022-10-28T00:33:56.111Z,19.42
2022-10-28T00:43:56.017Z,19.50
2022-10-28T00:53:56.049Z,19.53
2022-10-28T01:03:56.044Z,19.60
2022-10-28T01:13:56.034Z,19.67
2022-10-28T01:23:56.170Z,19.73
2022-10-28T01:33:56.113Z,19.83
2022-10-28T01:43:56.188Z,19.90
2022-10-28T01:53:56.110Z,19.92
2022-10-28T02:03:56.248Z,19.91
2022-10-28T02:13:56.185Z,19.89
2022-10-28T02:23:56.173Z,19.86
2022-10-28T02:33:56.238Z,19.79
2022-10-28T02:43:56.213Z,19.65
2022-10-28T02:53:56.275Z,19.53
2022-10-28T03:03:56.238Z,19.41
2022-10-28T03:13:56.228Z,19.27
2022-10-28T03:23:56.327Z,19.13
2022-10-28T03:33:56.354Z,19.00
2022-10-28T03:43:56.330Z,18.92
2022-10-28T03:53:56.312Z,18.84
2022-10-28T04:03:56.377Z,18.78
2022-10-28T04:13:56.357Z,18.74
2022-10-28T04:23:56.312Z,18.69
2022-10-28T04:33:56.354Z,18.62
2022-10-28T04:43:56.473Z,18.56
2022-10-28T04:53:56.379Z,18.52
2022-10-28T05:03:56.503Z,18.48
2022-10-28T05:13:56.442Z,18.46
2022-10-28T05:23:56.437Z,18.42
2022-10-28T05:33:56.510Z,18.35
2022-10-28T05:43:56.437Z,18.30
2022-10-28T05:53:56.428Z,18.30
2022-10-28T06:03:56.534Z,18.29
2022-10-28T06:13:54.930Z,18.28
2022-10-28T06:23:55.034Z,18.34
2022-10-28T06:33:55.053Z,18.50
2022-10-28T06:43:55.003Z,18.71
2022-10-28T06:53:56.545Z,18.92
2022-10-28T07:03:56.698Z,19.09
2022-10-28T07:13:56.633Z,19.34
2022-10-28T07:23:56.736Z,19.67
2022-10-28T07:33:56.649Z,20.07
2022-10-28T07:43:56.714Z,20.52
2022-10-28T07:53:56.645Z,20.94
2022-10-28T08:03:56.651Z,21.37
2022-10-28T08:13:56.748Z,21.84
2022-10-28T08:23:56.681Z,22.38
2022-10-28T08:33:56.676Z,22.90
2022-10-28T08:43:58.008Z,23.19
2022-10-28T08:53:57.700Z,23.39
2022-10-28T09:03:57.727Z,23.69
2022-10-28T09:13:57.748Z,24.33
2022-10-28T09:23:57.732Z,25.10
2022-10-28T09:33:57.805Z,25.42
2022-10-28T09:43:57.781Z,25.36
2022-10-28T09:53:57.769Z,25.35
2022-10-28T10:03:57.923Z,25.56
2022-10-28T10:13:57.888Z,25.67
2022-10-28T10:23:57.815Z,25.62
2022-10-28T10:33:57.835Z,25.62
2022-10-28T10:43:57.929Z,25.71
2022-10-28T10:53:57.929Z,25.80
2022-10-28T11:13:57.907Z,25.78
2022-10-28T11:23:58.017Z,25.96
2022-10-28T11:33:57.923Z,26.08
2022-10-28T11:44:03.801Z,26.18
2022-10-28T11:53:59.012Z,26.30
2022-10-28T12:03:59.010Z,26.46
2022-10-28T12:13:59.095Z,26.60
2022-10-28T12:23:59.029Z,26.57
2022-10-28T12:33:59.182Z,26.47
2022-10-28T12:43:59.043Z,26.36
2022-10-28T12:53:59.169Z,26.24
2022-10-28T13:03:59.112Z,26.15
2022-10-28T13:13:59.271Z,26.22
2022-10-28T13:23:59.137Z,26.37
2022-10-28T13:33:59.119Z,26.46
2022-10-28T13:43:59.178Z,26.42
2022-10-28T13:53:59.257Z,26.31
2022-10-28T14:03:59.207Z,26.19
2022-10-28T14:13:59.208Z,25.94
2022-10-28T14:23:59.191Z,25.57
2022-10-28T14:33:59.215Z,25.23
2022-10-28T14:43:59.262Z,24.91
2022-10-28T14:53:59.237Z,24.59
2022-10-28T15:03:59.252Z,24.25
2022-10-28T15:13:59.289Z,23.89
2022-10-28T15:23:59.285Z,23.53
2022-10-28T15:33:59.289Z,23.19
2022-10-28T15:43:59.318Z,22.82
2022-10-28T15:53:59.327Z,22.41
2022-10-28T16:03:59.318Z,22.01
2022-10-28T16:13:59.346Z,21.64
2022-10-28T16:23:59.358Z,21.32
2022-10-28T16:33:59.390Z,21.09
2022-10-28T16:43:59.444Z,20.94
2022-10-28T16:53:59.388Z,20.78
2022-10-28T17:03:59.436Z,20.54
2022-10-28T17:13:59.435Z,20.27
2022-10-28T17:23:59.454Z,20.01
2022-10-28T17:33:59.443Z,19.73
2022-10-28T17:43:59.461Z,19.45
2022-10-28T17:53:59.470Z,19.21
2022-10-28T18:03:59.501Z,18.99
2022-10-28T18:13:59.514Z,18.78
2022-10-28T18:23:59.525Z,18.57
2022-10-28T18:33:59.580Z,18.34
2022-10-28T18:43:59.537Z,18.17
2022-10-28T18:53:59.591Z,18.05
2022-10-28T19:03:59.579Z,17.93
2022-10-28T19:13:59.600Z,17.81
2022-10-28T19:23:59.663Z,17.67
2022-10-28T19:33:59.618Z,17.55
2022-10-28T19:43:59.645Z,17.53
2022-10-28T19:53:59.662Z,17.55
2022-10-28T20:03:59.678Z,17.56
2022-10-28T20:13:59.808Z,17.54
2022-10-28T20:23:59.679Z,17.49
2022-10-28T20:33:59.757Z,17.46
2022-10-28T20:43:59.733Z,17.45
2022-10-28T20:53:59.731Z,17.48
2022-10-28T21:03:59.742Z,17.53
2022-10-28T21:13:59.771Z,17.49
2022-10-28T21:23:59.753Z,17.36
2022-10-28T21:34:01.814Z,17.20
2022-10-28T21:44:00.787Z,17.05
2022-10-28T21:54:00.814Z,16.93
2022-10-28T22:04:00.917Z,16.85
2022-10-28T22:14:00.848Z,16.82
2022-10-28T22:24:03.967Z,16.85
2022-10-28T22:34:03.863Z,16.97
2022-10-28T22:44:03.859Z,17.06
2022-10-28T22:54:03.901Z,17.05
2022-10-28T23:04:03.994Z,16.99
2022-10-28T23:14:03.996Z,16.91
2022-10-28T23:24:04.012Z,16.83
2022-10-28T23:34:03.963Z,16.76
2022-10-28T23:44:03.972Z,16.68
2022-10-28T23:54:03.983Z,16.61
